createdAt,value
2022-10-08T00:01:28.615Z,2.50
2022-10-08T00:03:57.069Z,2.30
2022-10-08T00:06:28.428Z,2.92
2022-10-08T00:09:07.601Z,2.58
2022-10-08T00:11:38.771Z,3.95
2022-10-08T00:14:08.225Z,2.28
2022-10-08T00:16:40.985Z,2.47
2022-10-08T00:19:12.795Z,2.15
2022-10-08T00:21:43.245Z,2.03
2022-10-08T00:24:17.266Z,2.47
2022-10-08T00:29:15.200Z,2.05
2022-10-08T00:31:45.725Z,2.30
2022-10-08T00:34:16.205Z,1.90
2022-10-08T00:36:43.817Z,1.83
2022-10-08T00:39:16.831Z,2.70
2022-10-08T00:41:47.922Z,2.20
2022-10-08T00:44:43.266Z,1.90
2022-10-08T00:47:32.690Z,2.17
2022-10-08T00:50:00.019Z,2.80
2022-10-08T00:52:30.998Z,4.05
2022-10-08T00:54:58.529Z,1.88
2022-10-08T00:57:27.148Z,2.03
2022-10-08T00:59:54.888Z,3.20
2022-10-08T01:02:22.362Z,2.35
2022-10-08T01:04:50.007Z,1.98
2022-10-08T01:07:25.056Z,2.20
2022-10-08T01:10:00.349Z,2.20
2022-10-08T01:12:58.711Z,1.58
2022-10-08T01:15:41.025Z,2.05
2022-10-08T01:18:21.594Z,2.42
2022-10-08T01:21:01.107Z,3.13
2022-10-08T01:23:56.162Z,3.35
2022-10-08T01:26:40.902Z,2.22
2022-10-08T01:29:17.190Z,2.20
2022-10-08T01:31:48.806Z,2.60
2022-10-08T01:34:22.292Z,1.92
2022-10-08T01:36:54.090Z,2.10
2022-10-08T01:39:25.880Z,2.20
2022-10-08T01:41:56.782Z,2.80
2022-10-08T01:44:33.908Z,2.15
2022-10-08T01:47:07.427Z,2.53
2022-10-08T01:49:42.198Z,2.20
2022-10-08T01:52:48.825Z,1.75
2022-10-08T01:55:32.367Z,1.67
2022-10-08T01:58:04.840Z,1.92
2022-10-08T02:00:34.719Z,1.70
2022-10-08T02:03:02.694Z,1.42
2022-10-08T02:05:34.903Z,2.25
2022-10-08T02:08:02.600Z,3.35
2022-10-08T02:10:30.516Z,2.67
2022-10-08T02:12:58.334Z,2.83
2022-10-08T02:15:28.811Z,1.42
2022-10-08T02:18:06.632Z,2.17
2022-10-08T02:20:45.821Z,1.33
2022-10-08T02:23:32.531Z,1.30
2022-10-08T02:26:02.961Z,2.50
2022-10-08T02:28:39.616Z,2.33
2022-10-08T02:31:18.172Z,2.05
2022-10-08T02:34:11.637Z,1.23
2022-10-08T02:36:45.744Z,3.85
2022-10-08T02:39:16.088Z,1.83
2022-10-08T02:41:51.814Z,2.67
2022-10-08T02:44:42.021Z,2.90
2022-10-08T02:47:15.073Z,3.15
2022-10-08T02:49:51.943Z,2.33
2022-10-08T02:52:22.107Z,2.45
2022-10-08T02:54:52.225Z,3.10
2022-10-08T02:57:31.239Z,3.75
2022-10-08T02:59:59.515Z,4.32
2022-10-08T03:02:39.705Z,3.05
2022-10-08T03:05:14.062Z,3.00
2022-10-08T03:07:42.945Z,3.28
2022-10-08T03:10:10.780Z,3.22
2022-10-08T03:12:38.797Z,3.42
2022-10-08T03:15:09.394Z,2.95
2022-10-08T03:17:41.732Z,2.72
2022-10-08T03:20:10.458Z,3.67
2022-10-08T03:22:38.751Z,2.45
2022-10-08T03:25:06.322Z,2.95
2022-10-08T03:27:35.494Z,2.05
2022-10-08T03:30:04.849Z,2.67
2022-10-08T03:32:32.619Z,2.28
2022-10-08T03:35:00.056Z,2.95
2022-10-08T03:37:27.445Z,2.55
2022-10-08T03:39:54.839Z,2.28
2022-10-08T03:42:22.198Z,3.30
2022-10-08T03:44:49.760Z,2.58
2022-10-08T03:47:17.211Z,2.83
2022-10-08T03:49:44.572Z,4.45
2022-10-08T03:52:11.959Z,2.45
2022-10-08T03:54:39.333Z,2.42
2022-10-08T03:57:06.778Z,3.47
2022-10-08T03:59:34.129Z,2.08
2022-10-08T04:02:01.550Z,2.50
2022-10-08T04:04:29.149Z,2.25
2022-10-08T04:06:56.618Z,2.35
2022-10-08T04:09:23.995Z,2.13
2022-10-08T04:11:51.433Z,2.17
2022-10-08T04:14:18.908Z,1.40
2022-10-08T04:16:46.481Z,2.08
2022-10-08T04:19:14.514Z,1.98
2022-10-08T04:21:42.070Z,1.67
2022-10-08T04:24:09.876Z,2.88
2022-10-08T04:26:37.287Z,2.08
2022-10-08T04:29:04.711Z,1.88
2022-10-08T04:31:32.169Z,2.03
2022-10-08T04:33:59.629Z,3.45
2022-10-08T04:36:27.133Z,3.45
2022-10-08T04:38:54.611Z,1.83
2022-10-08T04:41:26.377Z,2.35
2022-10-08T04:43:58.346Z,2.63
2022-10-08T04:46:25.868Z,2.10
2022-10-08T04:48:55.683Z,2.78
2022-10-08T04:51:25.363Z,2.15
2022-10-08T04:53:54.296Z,2.53
2022-10-08T04:56:26.637Z,2.55
2022-10-08T04:58:57.735Z,2.05
2022-10-08T05:01:26.858Z,4.00
2022-10-08T05:03:56.108Z,1.83
2022-10-08T05:06:26.305Z,2.75
2022-10-08T05:08:54.069Z,2.65
2022-10-08T05:11:25.191Z,1.60
2022-10-08T05:13:54.153Z,2.88
2022-10-08T05:16:21.922Z,1.60
2022-10-08T05:18:52.179Z,2.10
2022-10-08T05:21:22.832Z,1.42
2022-10-08T05:24:02.531Z,3.53
2022-10-08T05:26:57.036Z,1.67
2022-10-08T05:29:21.233Z,1.33
2022-10-08T05:31:48.778Z,1.67
2022-10-08T05:34:16.548Z,1.25
2022-10-08T05:36:43.961Z,1.48
2022-10-08T05:39:12.025Z,2.03
2022-10-08T05:41:39.499Z,2.05
2022-10-08T05:44:07.713Z,2.00
2022-10-08T05:46:36.475Z,3.35
2022-10-08T05:49:07.588Z,3.28
2022-10-08T05:51:36.440Z,1.70
2022-10-08T05:54:04.008Z,2.25
2022-10-08T05:56:31.970Z,2.95
2022-10-08T05:58:59.574Z,2.08
2022-10-08T06:01:29.810Z,1.70
2022-10-08T06:04:08.136Z,2.53
2022-10-08T06:06:37.523Z,1.63
2022-10-08T06:09:06.737Z,2.35
2022-10-08T06:11:36.487Z,1.33
2022-10-08T06:14:06.313Z,2.05
2022-10-08T06:16:35.113Z,2.28
2022-10-08T06:19:03.586Z,1.63
2022-10-08T06:21:31.966Z,2.47
2022-10-08T06:24:01.675Z,2.13
2022-10-08T06:26:35.608Z,3.10
2022-10-08T06:29:06.168Z,1.83
2022-10-08T06:31:35.542Z,2.25
2022-10-08T06:34:04.912Z,3.78
2022-10-08T06:36:34.359Z,2.28
2022-10-08T06:39:08.155Z,0.77
2022-10-08T06:41:35.662Z,0.90
2022-10-08T06:44:05.328Z,1.15
2022-10-08T06:46:33.515Z,3.03
2022-10-08T06:49:01.760Z,1.38
2022-10-08T06:51:29.831Z,0.95
2022-10-08T06:54:05.751Z,1.98
2022-10-08T06:56:36.294Z,1.02
2022-10-08T06:59:05.668Z,3.83
2022-10-08T07:01:35.373Z,3.30
2022-10-08T07:04:04.818Z,2.25
2022-10-08T07:06:32.169Z,1.15
2022-10-08T07:09:02.163Z,0.95
2022-10-08T07:11:32.249Z,1.20
2022-10-08T07:13:59.954Z,1.40
2022-10-08T07:16:28.840Z,2.25
2022-10-08T07:18:58.949Z,2.20
2022-10-08T07:21:28.958Z,2.13
2022-10-08T07:23:58.767Z,1.20
2022-10-08T07:26:28.368Z,2.78
2022-10-08T07:29:06.961Z,1.65
2022-10-08T07:31:36.862Z,1.15
2022-10-08T07:34:07.169Z,1.77
2022-10-08T07:36:35.215Z,5.15
2022-10-08T07:39:06.082Z,1.42
2022-10-08T07:41:33.767Z,1.63
2022-10-08T07:44:02.741Z,2.05
2022-10-08T07:46:32.796Z,3.15
2022-10-08T07:49:01.811Z,3.13
2022-10-08T07:51:31.605Z,1.73
2022-10-08T07:54:03.890Z,2.15
2022-10-08T07:56:33.946Z,1.38
2022-10-08T07:59:02.669Z,2.80
2022-10-08T08:01:31.198Z,1.38
2022-10-08T08:04:07.081Z,2.05
2022-10-08T08:06:39.909Z,1.00
2022-10-08T08:09:07.916Z,2.50
2022-10-08T08:11:35.369Z,1.85
2022-10-08T08:14:02.902Z,2.05
2022-10-08T08:16:31.803Z,2.85
2022-10-08T08:19:02.328Z,2.15
2022-10-08T08:21:32.860Z,1.33
2022-10-08T08:24:06.423Z,3.67
2022-10-08T08:26:37.010Z,1.08
2022-10-08T08:29:07.719Z,1.75
2022-10-08T08:31:38.663Z,1.88
2022-10-08T08:34:09.068Z,2.55
2022-10-08T08:36:39.378Z,3.53
2022-10-08T08:39:10.601Z,2.65
2022-10-08T08:41:53.188Z,1.20
2022-10-08T08:44:27.204Z,1.25
2022-10-08T08:47:00.589Z,1.52
2022-10-08T08:49:30.467Z,1.00
2022-10-08T08:52:00.649Z,2.15
2022-10-08T08:54:28.049Z,1.77
2022-10-08T08:56:55.892Z,1.40
2022-10-08T08:59:46.029Z,2.22
2022-10-08T09:02:54.967Z,1.90
2022-10-08T09:05:25.356Z,0.88
2022-10-08T09:08:16.411Z,3.08
2022-10-08T09:10:51.764Z,1.17
2022-10-08T09:13:44.830Z,0.98
2022-10-08T09:16:15.899Z,1.90
2022-10-08T09:18:51.658Z,0.98
2022-10-08T09:21:20.176Z,1.88
2022-10-08T09:23:48.372Z,3.20
2022-10-08T09:26:24.630Z,2.10
2022-10-08T09:29:00.398Z,4.15
2022-10-08T09:31:36.874Z,2.65
2022-10-08T09:34:10.461Z,2.08
2022-10-08T09:36:55.025Z,2.10
2022-10-08T09:39:25.824Z,1.77
2022-10-08T09:42:08.646Z,3.60
2022-10-08T09:44:42.183Z,3.13
2022-10-08T09:47:13.851Z,1.40
2022-10-08T09:49:41.844Z,2.05
2022-10-08T09:52:27.260Z,1.60
2022-10-08T09:55:21.683Z,3.15
2022-10-08T09:57:54.726Z,3.58
2022-10-08T10:00:29.506Z,4.10
2022-10-08T10:02:58.852Z,1.65
2022-10-08T10:05:32.530Z,2.50
2022-10-08T10:10:33.654Z,1.27
2022-10-08T10:16:04.635Z,3.13
2022-10-08T10:18:52.210Z,5.70
2022-10-08T10:21:28.992Z,2.95
2022-10-08T10:24:22.199Z,1.73
2022-10-08T10:26:54.647Z,1.83
2022-10-08T10:29:27.180Z,1.00
2022-10-08T10:32:00.710Z,1.35
2022-10-08T10:34:31.203Z,1.73
2022-10-08T10:37:05.264Z,2.50
2022-10-08T10:39:39.730Z,2.03
2022-10-08T10:42:07.077Z,2.58
2022-10-08T10:44:47.246Z,2.75
2022-10-08T10:47:15.820Z,2.28
2022-10-08T10:49:44.350Z,2.42
2022-10-08T10:52:39.276Z,1.25
2022-10-08T10:55:18.402Z,2.65
2022-10-08T10:58:08.497Z,1.67
2022-10-08T11:00:41.968Z,2.05
2022-10-08T11:03:24.166Z,1.60
2022-10-08T11:06:13.036Z,0.95
2022-10-08T11:08:59.915Z,1.85
2022-10-08T11:11:50.413Z,1.27
2022-10-08T11:14:36.361Z,1.27
2022-10-08T11:17:19.900Z,1.73
2022-10-08T11:20:04.268Z,1.55
2022-10-08T11:22:40.352Z,1.67
2022-10-08T11:26:16.481Z,1.42
2022-10-08T11:28:58.141Z,2.72
2022-10-08T11:31:36.276Z,5.95
2022-10-08T11:34:04.771Z,2.75
2022-10-08T11:36:48.394Z,2.70
2022-10-08T11:39:31.955Z,2.05
2022-10-08T11:42:08.275Z,1.27
2022-10-08T11:44:37.438Z,1.70
2022-10-08T11:47:42.126Z,1.52
2022-10-08T11:50:24.642Z,1.35
2022-10-08T11:52:54.834Z,0.95
2022-10-08T11:55:29.349Z,1.60
2022-10-08T11:58:21.354Z,0.88
2022-10-08T12:00:49.731Z,1.63
2022-10-08T12:03:27.647Z,1.75
2022-10-08T12:05:59.004Z,1.42
2022-10-08T12:08:57.535Z,1.50
2022-10-08T12:11:37.829Z,3.75
2022-10-08T12:14:11.385Z,2.25
2022-10-08T12:16:47.968Z,1.65
2022-10-08T12:19:34.281Z,1.98
2022-10-08T12:22:16.973Z,1.65
2022-10-08T12:24:49.629Z,1.33
2022-10-08T12:27:17.700Z,2.72
2022-10-08T12:30:01.054Z,1.60
2022-10-08T12:32:42.082Z,5.88
2022-10-08T12:35:28.116Z,1.85
2022-10-08T12:37:55.587Z,2.00
2022-10-08T12:40:40.796Z,1.50
2022-10-08T12:43:51.048Z,1.80
2022-10-08T12:46:44.935Z,1.27
2022-10-08T12:49:35.478Z,1.88
2022-10-08T12:52:12.030Z,2.13
2022-10-08T12:55:01.880Z,1.50
2022-10-08T12:57:39.660Z,1.33
2022-10-08T13:00:28.942Z,1.63
2022-10-08T13:03:16.864Z,5.38
2022-10-08T13:05:45.242Z,2.13
2022-10-08T13:08:18.743Z,4.47
2022-10-08T13:10:46.272Z,1.77
2022-10-08T13:13:38.548Z,2.00
2022-10-08T13:16:09.018Z,2.08
2022-10-08T13:18:37.962Z,1.20
2022-10-08T13:21:08.342Z,2.28
2022-10-08T13:23:40.067Z,1.67
2022-10-08T13:26:39.807Z,2.30
2022-10-08T13:29:22.605Z,1.83
2022-10-08T13:32:19.589Z,3.60
2022-10-08T13:34:51.426Z,5.03
2022-10-08T13:37:21.975Z,3.35
2022-10-08T13:40:02.975Z,1.85
2022-10-08T13:42:34.718Z,1.70
2022-10-08T13:45:04.403Z,3.10
2022-10-08T13:47:32.088Z,2.38
2022-10-08T13:50:02.800Z,2.53
2022-10-08T13:52:34.389Z,2.22
2022-10-08T13:55:09.046Z,2.38
2022-10-08T13:57:36.499Z,2.65
2022-10-08T14:00:05.546Z,3.42
2022-10-08T14:02:33.065Z,5.03
2022-10-08T14:05:00.417Z,2.70
2022-10-08T14:07:31.530Z,2.13
2022-10-08T14:10:01.915Z,2.78
2022-10-08T14:12:35.446Z,1.70
2022-10-08T14:15:02.846Z,3.95
2022-10-08T14:17:32.846Z,1.45
2022-10-08T14:20:00.422Z,1.60
2022-10-08T14:22:27.867Z,2.55
2022-10-08T14:24:55.219Z,3.60
2022-10-08T14:27:22.687Z,2.85
2022-10-08T14:29:50.132Z,2.45
2022-10-08T14:32:17.629Z,2.30
2022-10-08T14:34:44.959Z,2.10
2022-10-08T14:37:12.414Z,2.22
2022-10-08T14:39:39.879Z,2.28
2022-10-08T14:42:07.424Z,1.60
2022-10-08T14:44:34.794Z,2.30
2022-10-08T14:47:02.246Z,2.20
2022-10-08T14:49:29.679Z,2.75
2022-10-08T14:51:57.178Z,1.50
2022-10-08T14:54:26.059Z,2.47
2022-10-08T14:56:53.479Z,2.53
2022-10-08T14:59:22.186Z,2.63
2022-10-08T15:01:49.580Z,2.70
2022-10-08T15:04:17.251Z,2.72
2022-10-08T15:06:44.722Z,2.22
2022-10-08T15:09:12.690Z,2.10
2022-10-08T15:11:40.332Z,4.78
2022-10-08T15:14:07.836Z,2.40
2022-10-08T15:16:35.861Z,4.80
2022-10-08T15:19:07.830Z,3.28
2022-10-08T15:21:35.893Z,4.50
2022-10-08T15:24:03.497Z,3.00
2022-10-08T15:26:31.148Z,2.47
2022-10-08T15:28:58.639Z,2.22
2022-10-08T15:31:26.769Z,2.70
2022-10-08T15:33:56.374Z,3.58
2022-10-08T15:36:29.017Z,3.17
2022-10-08T15:39:12.203Z,2.35
2022-10-08T15:41:42.502Z,1.67
2022-10-08T15:44:14.298Z,1.90
2022-10-08T15:46:42.027Z,1.48
2022-10-08T15:49:09.493Z,2.67
2022-10-08T15:51:37.013Z,1.55
2022-10-08T15:54:04.938Z,1.55
2022-10-08T15:56:32.760Z,2.58
2022-10-08T15:59:01.438Z,2.80
2022-10-08T16:01:29.865Z,1.42
2022-10-08T16:03:58.437Z,1.50
2022-10-08T16:06:29.322Z,1.40
2022-10-08T16:08:58.208Z,1.48
2022-10-08T16:11:29.572Z,3.67
2022-10-08T16:14:03.272Z,4.63
2022-10-08T16:16:31.097Z,1.55
2022-10-08T16:19:02.234Z,16.27
2022-10-08T16:21:31.792Z,41.42
2022-10-08T16:23:59.790Z,33.33
2022-10-08T16:26:29.233Z,21.33
2022-10-08T16:28:59.413Z,5.82
2022-10-08T16:31:28.977Z,3.80
2022-10-08T16:33:58.053Z,22.00
2022-10-08T16:36:27.257Z,16.70
2022-10-08T16:38:55.146Z,13.13
2022-10-08T16:41:28.854Z,14.90
2022-10-08T16:46:28.199Z,10.02
2022-10-08T16:48:56.964Z,12.68
2022-10-08T16:51:27.021Z,13.48
2022-10-08T16:53:56.511Z,9.63
2022-10-08T16:56:26.815Z,4.15
2022-10-08T16:58:56.423Z,2.08
2022-10-08T17:01:24.412Z,8.07
2022-10-08T17:03:52.938Z,6.15
2022-10-08T17:06:22.598Z,2.72
2022-10-08T17:08:51.378Z,9.05
2022-10-08T17:11:19.415Z,4.80
2022-10-08T17:13:55.958Z,2.83
2022-10-08T17:16:26.429Z,23.98
2022-10-08T17:18:57.013Z,24.83
2022-10-08T17:21:25.362Z,5.15
2022-10-08T17:23:52.928Z,17.92
2022-10-08T17:26:22.760Z,36.45
2022-10-08T17:28:52.070Z,15.02
2022-10-08T17:31:22.696Z,14.43
2022-10-08T17:33:50.663Z,14.57
2022-10-08T17:36:26.651Z,28.35
2022-10-08T17:38:56.758Z,5.57
2022-10-08T17:41:34.825Z,16.88
2022-10-08T17:44:05.437Z,8.13
2022-10-08T17:46:36.415Z,24.33
2022-10-08T17:49:04.790Z,1.80
2022-10-08T17:51:32.765Z,8.15
2022-10-08T17:54:03.658Z,15.68
2022-10-08T17:56:32.625Z,2.05
2022-10-08T17:59:00.616Z,21.63
2022-10-08T18:01:31.124Z,6.22
2022-10-08T18:04:10.333Z,8.82
2022-10-08T18:06:43.446Z,2.70
2022-10-08T18:09:13.943Z,5.80
2022-10-08T18:11:45.070Z,3.13
2022-10-08T18:14:13.273Z,5.85
2022-10-08T18:16:45.568Z,8.20
2022-10-08T18:19:15.246Z,9.60
2022-10-08T18:21:42.733Z,2.53
2022-10-08T18:24:11.230Z,2.92
2022-10-08T18:26:38.719Z,2.13
2022-10-08T18:29:09.865Z,2.00
2022-10-08T18:31:39.850Z,1.38
2022-10-08T18:34:11.980Z,4.28
2022-10-08T18:36:40.640Z,2.03
2022-10-08T18:39:14.610Z,2.35
2022-10-08T18:41:44.852Z,2.60
2022-10-08T18:44:14.943Z,5.13
2022-10-08T18:46:45.755Z,4.32
2022-10-08T18:49:16.334Z,2.25
2022-10-08T18:51:44.240Z,3.30
2022-10-08T18:54:12.356Z,2.50
2022-10-08T18:56:41.358Z,4.07
2022-10-08T18:59:12.991Z,2.35
2022-10-08T19:01:43.041Z,3.20
2022-10-08T19:04:19.219Z,2.65
2022-10-08T19:06:48.637Z,3.42
2022-10-08T19:09:16.429Z,2.90
2022-10-08T19:11:49.777Z,2.58
2022-10-08T19:14:19.469Z,2.38
2022-10-08T19:16:47.595Z,1.08
2022-10-08T19:19:22.313Z,1.88
2022-10-08T19:21:50.792Z,1.55
2022-10-08T19:24:21.450Z,0.80
2022-10-08T19:26:50.055Z,1.30
2022-10-08T19:29:20.625Z,1.02
2022-10-08T19:31:49.143Z,2.88
2022-10-08T19:34:19.795Z,2.72
2022-10-08T19:36:48.210Z,2.90
2022-10-08T19:39:19.413Z,1.73
2022-10-08T19:41:47.080Z,1.30
2022-10-08T19:44:14.839Z,3.13
2022-10-08T19:46:42.419Z,0.80
2022-10-08T19:49:10.341Z,1.45
2022-10-08T19:51:38.571Z,0.88
2022-10-08T19:54:06.176Z,1.77
2022-10-08T19:56:33.972Z,1.15
2022-10-08T19:59:01.536Z,0.80
2022-10-08T20:01:32.832Z,1.42
2022-10-08T20:04:02.126Z,2.55
2022-10-08T20:06:32.238Z,1.38
2022-10-08T20:09:02.288Z,1.05
2022-10-08T20:11:31.515Z,3.55
2022-10-08T20:13:59.983Z,0.77
2022-10-08T20:16:34.003Z,0.70
2022-10-08T20:19:04.776Z,0.85
2022-10-08T20:21:34.615Z,0.80
2022-10-08T20:24:02.782Z,0.77
2022-10-08T20:26:32.816Z,1.20
2022-10-08T20:29:07.354Z,1.13
2022-10-08T20:31:40.833Z,2.70
2022-10-08T20:34:20.166Z,1.27
2022-10-08T20:36:49.000Z,1.95
2022-10-08T20:39:18.609Z,0.82
2022-10-08T20:41:46.574Z,2.63
2022-10-08T20:44:14.924Z,0.55
2022-10-08T20:46:42.875Z,1.27
2022-10-08T20:49:12.252Z,1.17
2022-10-08T20:51:41.614Z,2.47
2022-10-08T20:54:12.530Z,1.58
2022-10-08T20:56:41.090Z,1.50
2022-10-08T20:59:15.814Z,1.63
2022-10-08T21:01:43.383Z,1.05
2022-10-08T21:04:11.351Z,0.95
2022-10-08T21:06:44.376Z,0.68
2022-10-08T21:09:12.964Z,1.73
2022-10-08T21:11:41.048Z,1.90
2022-10-08T21:14:10.231Z,1.85
2022-10-08T21:16:40.179Z,2.22
2022-10-08T21:19:11.636Z,0.85
2022-10-08T21:21:39.858Z,0.88
2022-10-08T21:24:07.470Z,0.80
2022-10-08T21:26:37.580Z,1.48
2022-10-08T21:29:08.297Z,1.95
2022-10-08T21:31:37.249Z,0.80
2022-10-08T21:34:06.019Z,2.00
2022-10-08T21:36:39.083Z,2.17
2022-10-08T21:39:08.435Z,1.43
2022-10-08T21:41:38.586Z,0.93
2022-10-08T21:44:08.734Z,2.20
2022-10-08T21:46:41.417Z,0.90
2022-10-08T21:49:13.237Z,1.63
2022-10-08T21:51:40.886Z,0.80
2022-10-08T21:54:56.340Z,1.02
2022-10-08T21:57:23.726Z,1.13
2022-10-08T21:59:51.157Z,2.28
2022-10-08T22:02:18.663Z,2.60
2022-10-08T22:04:45.996Z,1.85
2022-10-08T22:07:13.485Z,1.80
2022-10-08T22:09:42.060Z,1.08
2022-10-08T22:12:09.479Z,1.55
2022-10-08T22:14:37.039Z,1.63
2022-10-08T22:17:04.410Z,1.98
2022-10-08T22:19:31.847Z,1.67
2022-10-08T22:21:59.257Z,1.27
2022-10-08T22:24:26.724Z,4.93
2022-10-08T22:26:54.187Z,1.33
2022-10-08T22:29:21.642Z,1.60
2022-10-08T22:31:49.088Z,1.35
2022-10-08T22:34:16.592Z,1.92
2022-10-08T22:36:45.135Z,2.08
2022-10-08T22:39:13.029Z,2.92
2022-10-08T22:41:40.733Z,2.10
2022-10-08T22:44:08.164Z,2.63
2022-10-08T22:46:38.738Z,2.03
2022-10-08T22:49:09.385Z,2.25
2022-10-08T22:51:37.234Z,2.97
2022-10-08T22:54:05.380Z,1.42
2022-10-08T22:56:33.334Z,3.63
2022-10-08T22:59:01.065Z,1.65
2022-10-08T23:01:29.917Z,1.58
2022-10-08T23:03:58.393Z,2.53
2022-10-08T23:06:28.752Z,1.85
2022-10-08T23:09:01.710Z,2.47
2022-10-08T23:11:30.483Z,2.73
2022-10-08T23:13:59.932Z,2.80
2022-10-08T23:16:29.245Z,3.28
2022-10-08T23:18:59.448Z,2.53
2022-10-08T23:21:27.040Z,2.47
2022-10-08T23:23:55.783Z,2.22
2022-10-08T23:26:24.048Z,2.33
2022-10-08T23:28:57.293Z,2.90
2022-10-08T23:31:27.878Z,2.40
2022-10-08T23:33:56.379Z,3.28
2022-10-08T23:36:32.151Z,2.17
2022-10-08T23:38:59.823Z,2.47
2022-10-08T23:41:27.991Z,2.17
2022-10-08T23:43:57.184Z,2.70
2022-10-08T23:46:27.056Z,3.05
2022-10-08T23:48:55.044Z,3.45
2022-10-08T23:51:23.935Z,3.35
2022-10-08T23:53:52.651Z,3.70
2022-10-08T23:56:21.206Z,2.10
2022-10-08T23:58:48.877Z,4.03
